createdAt,value
2017-08-14T00:00:18.081Z,30.40
2017-08-14T00:02:47.322Z,30.20
2017-08-14T00:05:16.593Z,34.90
2017-08-14T00:07:44.729Z,35.50
2017-08-14T00:10:15.405Z,35.53
2017-08-14T00:12:44.276Z,30.70
2017-08-14T00:15:12.461Z,32.27
2017-08-14T00:17:41.235Z,33.30
2017-08-14T00:20:10.841Z,33.70
2017-08-14T00:22:40.877Z,33.40
2017-08-14T00:25:11.983Z,33.60
2017-08-14T00:27:40.394Z,36.90
2017-08-14T00:30:10.870Z,32.87
2017-08-14T00:32:41.579Z,33.20
2017-08-14T00:35:09.540Z,34.97
2017-08-14T00:37:38.561Z,34.57
2017-08-14T00:40:06.440Z,33.57
2017-08-14T00:42:34.154Z,33.60
2017-08-14T00:45:02.055Z,33.93
2017-08-14T00:47:30.484Z,32.90
2017-08-14T00:49:58.026Z,34.40
2017-08-14T00:52:25.638Z,29.97
2017-08-14T00:54:53.178Z,33.23
2017-08-14T00:57:21.491Z,38.90
2017-08-14T00:59:49.060Z,33.20
2017-08-14T01:02:16.791Z,37.87
2017-08-14T01:04:44.581Z,36.20
2017-08-14T01:07:12.238Z,32.67
2017-08-14T01:09:40.077Z,37.23
2017-08-14T01:12:09.418Z,40.20
2017-08-14T01:14:37.002Z,34.97
2017-08-14T01:17:04.782Z,32.33
2017-08-14T01:19:32.949Z,36.73
2017-08-14T01:22:00.449Z,32.93
2017-08-14T01:24:28.007Z,40.20
2017-08-14T01:26:55.522Z,35.67
2017-08-14T01:29:23.190Z,36.00
2017-08-14T01:31:50.692Z,35.27
2017-08-14T01:34:19.238Z,35.53
2017-08-14T01:36:46.734Z,34.67
2017-08-14T01:39:14.456Z,39.87
2017-08-14T01:41:42.233Z,39.47
2017-08-14T01:44:14.642Z,40.40
2017-08-14T01:46:42.264Z,37.97
2017-08-14T01:49:10.038Z,40.77
2017-08-14T01:51:37.744Z,38.97
2017-08-14T01:54:05.584Z,39.00
2017-08-14T01:56:33.148Z,36.43
2017-08-14T01:59:00.758Z,39.23
2017-08-14T02:01:28.328Z,41.50
2017-08-14T02:03:56.495Z,41.00
2017-08-14T02:06:24.180Z,45.20
2017-08-14T02:08:51.863Z,41.17
2017-08-14T02:11:19.683Z,42.93
2017-08-14T02:13:47.299Z,46.27
2017-08-14T02:16:15.367Z,41.03
2017-08-14T02:18:43.326Z,42.40
2017-08-14T02:21:11.106Z,44.37
2017-08-14T02:23:38.608Z,41.00
2017-08-14T02:26:06.610Z,48.47
2017-08-14T02:28:35.396Z,48.90
2017-08-14T02:31:03.898Z,45.13
2017-08-14T02:33:32.483Z,45.03
2017-08-14T02:36:00.413Z,49.50
2017-08-14T02:38:28.781Z,52.43
2017-08-14T02:40:56.786Z,54.53
2017-08-14T02:43:24.631Z,55.10
2017-08-14T02:45:52.463Z,56.03
2017-08-14T02:48:20.281Z,50.93
2017-08-14T02:50:48.122Z,49.97
2017-08-14T02:53:15.749Z,49.80
2017-08-14T02:55:43.763Z,43.53
2017-08-14T02:58:11.400Z,47.27
2017-08-14T03:03:11.750Z,46.97
2017-08-14T03:05:39.383Z,56.33
2017-08-14T03:08:07.405Z,50.80
2017-08-14T03:10:34.964Z,45.10
2017-08-14T03:13:02.785Z,46.63
2017-08-14T03:15:30.598Z,40.43
2017-08-14T03:17:58.674Z,42.90
2017-08-14T03:20:26.746Z,42.37
2017-08-14T03:22:54.536Z,38.70
2017-08-14T03:25:22.071Z,39.97
2017-08-14T03:27:50.417Z,41.77
2017-08-14T03:30:18.097Z,42.73
2017-08-14T03:32:45.776Z,37.00
2017-08-14T03:35:14.688Z,41.23
2017-08-14T03:37:42.253Z,39.33
2017-08-14T03:40:10.960Z,36.73
2017-08-14T03:42:38.771Z,37.90
2017-08-14T03:45:06.826Z,37.17
2017-08-14T03:47:34.612Z,35.17
2017-08-14T03:50:02.595Z,37.90
2017-08-14T03:52:30.319Z,36.00
2017-08-14T03:54:58.006Z,40.93
2017-08-14T03:57:26.419Z,39.53
2017-08-14T03:59:54.371Z,41.20
2017-08-14T04:02:22.447Z,38.20
2017-08-14T04:04:50.157Z,35.07
2017-08-14T04:07:17.897Z,29.70
2017-08-14T04:09:45.390Z,33.47
2017-08-14T04:12:13.259Z,34.97
2017-08-14T04:14:40.996Z,31.97
2017-08-14T04:17:08.799Z,29.40
2017-08-14T04:19:36.496Z,30.10
2017-08-14T04:22:04.466Z,31.67
2017-08-14T04:24:33.980Z,33.90
2017-08-14T04:27:01.820Z,31.53
2017-08-14T04:29:29.551Z,31.13
2017-08-14T04:31:57.082Z,30.73
2017-08-14T04:37:01.927Z,30.27
2017-08-14T04:39:29.492Z,34.10
2017-08-14T04:41:57.078Z,29.47
2017-08-14T04:44:24.762Z,31.77
2017-08-14T04:46:52.499Z,29.60
2017-08-14T04:49:20.321Z,27.50
2017-08-14T04:51:47.968Z,33.50
2017-08-14T04:54:15.507Z,27.67
2017-08-14T04:56:45.280Z,32.23
2017-08-14T04:59:13.480Z,26.03
2017-08-14T05:01:41.216Z,28.87
2017-08-14T05:04:08.778Z,30.70
2017-08-14T05:06:36.321Z,24.53
2017-08-14T05:09:04.099Z,34.50
2017-08-14T05:11:32.460Z,30.27
2017-08-14T05:14:00.432Z,25.97
2017-08-14T05:16:28.105Z,33.73
2017-08-14T05:18:56.383Z,27.90
2017-08-14T05:21:27.842Z,28.27
2017-08-14T05:23:55.541Z,22.57
2017-08-14T05:26:24.002Z,23.10
2017-08-14T05:28:51.872Z,26.97
2017-08-14T05:31:20.992Z,25.17
2017-08-14T05:36:25.915Z,24.93
2017-08-14T05:38:55.505Z,24.83
2017-08-14T05:41:24.976Z,27.83
2017-08-14T05:43:53.040Z,25.70
2017-08-14T05:46:21.051Z,23.07
2017-08-14T05:48:49.780Z,22.17
2017-08-14T05:51:18.422Z,24.63
2017-08-14T05:53:47.417Z,24.70
2017-08-14T05:56:16.164Z,23.13
2017-08-14T05:58:44.769Z,26.63
2017-08-14T06:01:13.121Z,22.97
2017-08-14T06:03:41.029Z,24.63
2017-08-14T06:06:10.357Z,24.20
2017-08-14T06:08:38.068Z,20.47
2017-08-14T06:11:05.939Z,20.43
2017-08-14T06:13:34.611Z,21.00
2017-08-14T06:16:04.978Z,21.73
2017-08-14T06:18:33.131Z,21.83
2017-08-14T06:21:02.064Z,20.60
2017-08-14T06:23:29.575Z,25.73
2017-08-14T06:25:57.417Z,23.63
2017-08-14T06:28:26.149Z,23.00
2017-08-14T06:30:53.918Z,20.43
2017-08-14T06:33:22.049Z,19.23
2017-08-14T06:35:49.678Z,23.10
2017-08-14T06:38:17.490Z,21.87
2017-08-14T06:40:45.158Z,19.57
2017-08-14T06:43:12.875Z,19.47
2017-08-14T06:45:42.037Z,20.53
2017-08-14T06:48:09.627Z,22.57
2017-08-14T06:50:37.490Z,23.20
2017-08-14T06:53:05.712Z,14.17
2017-08-14T06:55:35.791Z,13.50
2017-08-14T06:58:04.346Z,16.70
2017-08-14T07:00:33.927Z,14.20
2017-08-14T07:03:05.119Z,11.77
2017-08-14T07:08:06.593Z,14.10
2017-08-14T07:10:34.539Z,17.17
2017-08-14T07:13:09.635Z,15.80
2017-08-14T07:15:56.708Z,15.50
2017-08-14T07:18:35.074Z,14.30
2017-08-14T07:21:03.172Z,12.97
2017-08-14T07:23:40.128Z,15.63
2017-08-14T07:26:09.348Z,13.63
2017-08-14T07:28:39.064Z,12.70
2017-08-14T07:31:08.144Z,14.73
2017-08-14T07:33:36.920Z,14.10
2017-08-14T07:36:04.989Z,15.13
2017-08-14T07:38:38.724Z,17.00
2017-08-14T07:44:06.237Z,14.30
2017-08-14T07:46:34.381Z,13.13
2017-08-14T07:49:02.590Z,12.13
2017-08-14T07:51:34.003Z,13.00
2017-08-14T07:54:04.658Z,16.33
2017-08-14T07:56:32.366Z,11.30
2017-08-14T07:59:01.035Z,19.50
2017-08-14T08:01:30.665Z,15.20
2017-08-14T08:04:01.244Z,13.67
2017-08-14T08:06:31.022Z,15.13
2017-08-14T08:08:58.995Z,12.70
2017-08-14T08:11:26.600Z,12.97
2017-08-14T08:13:54.467Z,11.10
2017-08-14T08:16:22.241Z,14.83
2017-08-14T08:18:50.121Z,12.23
2017-08-14T08:21:19.654Z,11.40
2017-08-14T08:23:47.467Z,11.13
2017-08-14T08:26:33.411Z,12.20
2017-08-14T08:29:05.134Z,10.80
2017-08-14T08:31:33.251Z,10.17
2017-08-14T08:34:14.214Z,12.20
2017-08-14T08:36:46.881Z,14.83
2017-08-14T08:39:16.445Z,13.67
2017-08-14T08:44:21.320Z,8.53
2017-08-14T08:46:52.969Z,9.10
2017-08-14T08:49:21.382Z,7.97
2017-08-14T08:51:53.052Z,9.00
2017-08-14T08:54:30.128Z,8.57
2017-08-14T08:56:59.118Z,8.60
2017-08-14T08:59:27.862Z,8.33
2017-08-14T09:01:56.583Z,9.83
2017-08-14T09:04:24.450Z,7.67
2017-08-14T09:06:53.547Z,6.40
2017-08-14T09:09:22.116Z,8.60
2017-08-14T09:14:28.152Z,6.80
2017-08-14T09:17:01.833Z,9.07
2017-08-14T09:22:11.417Z,5.83
2017-08-14T09:24:54.341Z,5.30
2017-08-14T09:27:27.118Z,7.47
2017-08-14T09:30:06.870Z,6.33
2017-08-14T09:32:40.396Z,7.67
2017-08-14T09:35:17.034Z,6.67
2017-08-14T09:37:57.329Z,7.30
2017-08-14T09:40:33.620Z,8.07
2017-08-14T09:43:39.378Z,6.00
2017-08-14T09:46:29.509Z,7.70
2017-08-14T09:54:19.653Z,5.67
2017-08-14T09:56:52.791Z,6.73
2017-08-14T09:59:24.263Z,7.23
2017-08-14T10:02:17.198Z,6.53
2017-08-14T10:07:31.748Z,9.13
2017-08-14T10:10:02.653Z,6.27
2017-08-14T10:12:31.264Z,10.17
2017-08-14T10:15:09.635Z,9.17
2017-08-14T10:20:27.817Z,6.20
2017-08-14T10:30:59.022Z,6.70
2017-08-14T10:33:33.122Z,6.00
2017-08-14T10:36:06.210Z,5.63
2017-08-14T10:38:37.293Z,6.23
2017-08-14T10:41:06.052Z,6.10
2017-08-14T10:43:36.303Z,5.83
2017-08-14T10:46:30.887Z,7.50
2017-08-14T10:49:01.215Z,5.63
2017-08-14T10:51:30.570Z,5.87
2017-08-14T10:54:11.357Z,6.07
2017-08-14T10:56:48.944Z,8.13
2017-08-14T10:59:35.259Z,10.13
2017-08-14T11:02:04.100Z,7.00
2017-08-14T11:04:47.730Z,13.10
2017-08-14T11:07:18.284Z,7.90
2017-08-14T11:12:30.305Z,10.93
2017-08-14T11:17:41.986Z,7.13
2017-08-14T11:22:51.297Z,6.20
2017-08-14T11:25:19.786Z,6.67
2017-08-14T11:27:47.986Z,6.60
2017-08-14T11:30:16.461Z,6.33
2017-08-14T11:32:45.140Z,7.70
2017-08-14T11:35:32.663Z,7.63
2017-08-14T11:38:06.928Z,6.60
2017-08-14T11:40:37.233Z,6.50
2017-08-14T11:43:12.258Z,6.27
2017-08-14T11:45:40.477Z,7.03
2017-08-14T11:48:13.782Z,6.00
2017-08-14T11:50:52.784Z,5.93
2017-08-14T11:56:19.915Z,5.10
2017-08-14T11:58:47.892Z,6.50
2017-08-14T12:06:55.790Z,6.13
2017-08-14T12:09:25.271Z,6.63
2017-08-14T12:11:54.999Z,7.73
2017-08-14T12:14:24.849Z,5.57
2017-08-14T12:16:55.938Z,5.50
2017-08-14T12:19:38.712Z,6.50
2017-08-14T12:24:41.402Z,5.03
2017-08-14T12:27:10.133Z,4.83
2017-08-14T12:29:42.354Z,4.50
2017-08-14T12:32:11.623Z,4.87
2017-08-14T12:34:39.856Z,5.90
2017-08-14T12:37:12.059Z,4.93
2017-08-14T12:39:46.856Z,13.90
2017-08-14T12:42:26.642Z,5.90
2017-08-14T12:45:06.305Z,10.90
2017-08-14T12:47:43.047Z,11.63
2017-08-14T12:50:34.497Z,6.60
2017-08-14T12:53:07.285Z,7.50
2017-08-14T12:55:45.881Z,7.53
2017-08-14T12:58:22.074Z,6.10
2017-08-14T13:00:50.644Z,9.87
2017-08-14T13:03:47.722Z,10.30
2017-08-14T13:06:18.057Z,7.23
2017-08-14T13:08:48.796Z,4.60
2017-08-14T13:14:17.147Z,7.87
2017-08-14T13:16:45.983Z,5.40
2017-08-14T13:19:14.351Z,5.07
2017-08-14T13:21:46.120Z,4.60
2017-08-14T13:24:19.926Z,4.77
2017-08-14T13:26:51.423Z,5.90
2017-08-14T13:29:36.301Z,5.60
2017-08-14T13:32:07.757Z,7.07
2017-08-14T13:34:53.549Z,5.87
2017-08-14T13:37:42.940Z,5.80
2017-08-14T13:40:18.260Z,4.80
2017-08-14T13:45:44.602Z,8.67
2017-08-14T13:48:15.978Z,5.20
2017-08-14T13:53:43.548Z,6.50
2017-08-14T13:56:11.697Z,5.13
2017-08-14T13:59:00.694Z,4.43
2017-08-14T14:01:32.460Z,5.30
2017-08-14T14:06:40.967Z,5.40
2017-08-14T14:09:13.833Z,5.40
2017-08-14T14:17:38.836Z,6.00
2017-08-14T14:20:13.872Z,4.97
2017-08-14T14:22:48.230Z,6.20
2017-08-14T14:37:02.181Z,5.20
2017-08-14T14:48:42.190Z,7.50
2017-08-14T14:51:33.509Z,7.80
2017-08-14T15:04:50.497Z,4.83
2017-08-14T15:13:02.647Z,5.90
2017-08-14T15:15:30.205Z,5.83
2017-08-14T15:17:58.802Z,5.40
2017-08-14T15:20:27.246Z,5.40
2017-08-14T15:22:55.489Z,5.27
2017-08-14T15:25:22.926Z,5.03
2017-08-14T15:27:50.462Z,5.47
2017-08-14T15:30:18.111Z,5.17
2017-08-14T15:32:45.969Z,5.33
2017-08-14T15:35:13.701Z,5.73
2017-08-14T15:37:42.925Z,4.40
2017-08-14T15:40:11.024Z,9.33
2017-08-14T15:42:39.652Z,5.10
2017-08-14T15:45:07.182Z,8.73
2017-08-14T15:47:34.818Z,6.90
2017-08-14T15:50:03.524Z,6.50
2017-08-14T15:52:31.078Z,5.50
2017-08-14T15:54:59.448Z,6.27
2017-08-14T15:57:28.100Z,9.77
2017-08-14T15:59:55.985Z,10.00
2017-08-14T16:02:23.512Z,6.33
2017-08-14T16:04:51.018Z,5.80
2017-08-14T16:07:19.015Z,7.50
2017-08-14T16:09:46.461Z,5.33
2017-08-14T16:12:14.025Z,5.30
2017-08-14T16:14:44.018Z,5.70
2017-08-14T16:17:12.377Z,5.40
2017-08-14T16:19:45.903Z,4.30
2017-08-14T16:22:14.972Z,6.03
2017-08-14T16:24:42.554Z,5.17
2017-08-14T16:27:14.372Z,5.43
2017-08-14T16:29:42.564Z,5.40
2017-08-14T16:32:11.263Z,6.20
2017-08-14T16:34:38.896Z,5.07
2017-08-14T16:37:06.603Z,5.20
2017-08-14T16:39:35.248Z,4.53
2017-08-14T16:42:04.770Z,5.93
2017-08-14T16:44:32.563Z,4.97
2017-08-14T16:47:00.040Z,5.30
2017-08-14T16:49:28.260Z,6.00
2017-08-14T16:51:55.852Z,5.57
2017-08-14T16:54:24.201Z,5.87
2017-08-14T16:56:52.218Z,6.83
2017-08-14T16:59:20.746Z,5.37
2017-08-14T17:01:48.304Z,9.90
2017-08-14T17:04:16.420Z,5.10
2017-08-14T17:06:44.731Z,9.17
2017-08-14T17:12:39.089Z,6.10
2017-08-14T17:51:28.358Z,6.90
2017-08-14T17:54:03.196Z,7.03
2017-08-14T17:56:34.872Z,9.00
2017-08-14T18:05:00.073Z,7.03
2017-08-14T18:07:43.288Z,6.37
2017-08-14T18:10:19.123Z,6.00
2017-08-14T18:12:59.532Z,9.27
2017-08-14T18:18:39.567Z,5.90
2017-08-14T18:23:54.880Z,5.90
2017-08-14T18:29:34.972Z,7.23
2017-08-14T18:35:12.144Z,6.50
2017-08-14T18:37:51.216Z,7.83
2017-08-14T18:40:25.526Z,11.97
2017-08-14T18:43:03.042Z,14.37
2017-08-14T18:45:34.163Z,8.77
2017-08-14T18:53:32.328Z,17.80
2017-08-14T18:56:09.789Z,18.73
2017-08-14T18:58:55.897Z,13.13
2017-08-14T19:01:33.355Z,24.17
2017-08-14T19:04:26.254Z,16.23
2017-08-14T19:09:52.747Z,20.70
2017-08-14T19:12:25.816Z,28.87
2017-08-14T19:14:59.110Z,37.77
2017-08-14T19:17:29.904Z,16.67
2017-08-14T19:20:00.364Z,70.13
2017-08-14T19:22:44.658Z,14.10
2017-08-14T19:25:13.907Z,22.37
2017-08-14T19:27:45.268Z,17.00
2017-08-14T19:30:15.181Z,9.20
2017-08-14T19:32:43.477Z,16.97
2017-08-14T19:35:11.211Z,16.33
2017-08-14T19:37:40.737Z,16.03
2017-08-14T19:40:09.181Z,19.20
2017-08-14T19:42:40.154Z,16.67
2017-08-14T19:45:23.662Z,7.57
2017-08-14T19:47:52.083Z,12.50
2017-08-14T19:50:25.544Z,8.90
2017-08-14T19:52:56.400Z,14.53
2017-08-14T19:55:31.028Z,8.77
2017-08-14T19:58:05.995Z,13.00
2017-08-14T20:00:41.993Z,16.43
2017-08-14T20:08:35.932Z,16.47
2017-08-14T20:11:06.438Z,17.90
2017-08-14T20:28:15.112Z,13.40
2017-08-14T20:30:54.090Z,11.93
2017-08-14T20:33:48.775Z,9.33
2017-08-14T20:39:16.060Z,8.80
2017-08-14T20:51:04.722Z,8.70
2017-08-14T20:53:48.902Z,7.53
2017-08-14T20:59:21.575Z,11.53
2017-08-14T21:01:49.873Z,12.03
2017-08-14T21:04:18.908Z,7.50
2017-08-14T21:09:24.532Z,12.53
2017-08-14T21:15:06.045Z,10.57
2017-08-14T21:23:58.923Z,11.83
2017-08-14T21:26:27.660Z,7.03
2017-08-14T21:29:02.446Z,8.03
2017-08-14T21:31:31.785Z,11.70
2017-08-14T21:34:03.544Z,10.10
2017-08-14T21:36:43.456Z,13.33
2017-08-14T21:39:13.401Z,10.00
2017-08-14T21:41:46.391Z,11.80
2017-08-14T21:44:18.142Z,13.73
2017-08-14T21:46:50.270Z,14.27
2017-08-14T21:51:56.993Z,33.10
2017-08-14T21:54:29.647Z,39.43
2017-08-14T21:57:09.194Z,30.57
2017-08-14T21:59:46.733Z,26.57
2017-08-14T22:02:19.104Z,14.80
2017-08-14T22:05:03.288Z,12.37
2017-08-14T22:07:40.295Z,17.07
2017-08-14T22:10:12.979Z,15.43
2017-08-14T22:12:43.030Z,15.60
2017-08-14T22:15:12.722Z,13.60
2017-08-14T22:20:31.940Z,13.53
2017-08-14T22:23:09.688Z,15.40
2017-08-14T22:25:40.529Z,13.33
2017-08-14T22:30:53.895Z,15.10
2017-08-14T22:36:03.544Z,12.03
2017-08-14T22:38:41.890Z,12.27
2017-08-14T22:41:18.717Z,12.53
2017-08-14T22:43:54.768Z,8.80
2017-08-14T22:46:25.465Z,17.47
2017-08-14T22:48:58.507Z,11.10
2017-08-14T22:56:49.215Z,10.00
2017-08-14T22:59:20.793Z,9.43
2017-08-14T23:01:49.636Z,12.70
2017-08-14T23:07:20.864Z,11.70
2017-08-14T23:09:49.339Z,10.60
2017-08-14T23:12:33.431Z,13.40
2017-08-14T23:15:06.005Z,12.97
2017-08-14T23:17:48.179Z,16.27
2017-08-14T23:20:43.208Z,15.13
2017-08-14T23:26:05.436Z,14.40
2017-08-14T23:28:34.101Z,17.77
2017-08-14T23:31:10.774Z,13.80
2017-08-14T23:33:45.915Z,12.23
2017-08-14T23:38:59.789Z,10.53
